This is the latest recevied weather packets stored in our database for station/object NE8U. If no packets are shown the sender has not sent any weather packets the latest 1 day(s).
| Time | Temp. | Humidity | Pressure | Rain* | Wind** | Luminosity | Snow |
|---|---|---|---|---|---|---|---|
| 1778014779 | 25° C | 33% | 1012.4 hPa | 0 mm | 2.68 m/s, 206° | 826 W/m² | - |
| 1778014478 | 24.44° C | 34% | 1012.4 hPa | 0 mm | 0 m/s | 197 W/m² | - |
| 1778014174 | 22.78° C | 34% | 1012.5 hPa | 0 mm | 0.45 m/s, 197° | 865 W/m² | - |
| 1778013872 | 24.44° C | 35% | 1012.5 hPa | 0 mm | 0.45 m/s, 172° | 156 W/m² | - |
| 1778013569 | 25.56° C | 34% | 1012.6 hPa | 0 mm | 0 m/s | 859 W/m² | - |
| 1778013265 | 25° C | 35% | 1012.7 hPa | 0 mm | 0 m/s | 891 W/m² | - |
| 1778012961 | 25° C | 34% | 1012.7 hPa | 0 mm | 1.34 m/s, 136° | 830 W/m² | - |
| 1778012658 | 24.44° C | 35% | 1012.7 hPa | 0 mm | 0 m/s | 840 W/m² | - |
| 1778012355 | 23.89° C | 34% | 1012.5 hPa | 0 mm | 0 m/s | 829 W/m² | - |
| 1778012052 | 23.89° C | 35% | 1012.6 hPa | 0 mm | 3.58 m/s, 180° | 837 W/m² | - |
| 1778011750 | 23.89° C | 36% | 1012.7 hPa | 0 mm | 3.58 m/s, 158° | 834 W/m² | - |
| 1778011447 | 23.89° C | 36% | 1012.8 hPa | 0 mm | 0.45 m/s, 222° | 827 W/m² | - |
| 1778011142 | 23.89° C | 43% | 1013 hPa | 0 mm | 1.79 m/s, 225° | 840 W/m² | - |
| 1778010840 | 23.33° C | 47% | 1012.9 hPa | 0 mm | 0 m/s | 887 W/m² | - |
| 1778010537 | 22.78° C | 49% | 1013.2 hPa | 0 mm | 2.24 m/s, 339° | 839 W/m² | - |
| 1778010234 | 22.78° C | 49% | 1012.9 hPa | 0 mm | 2.24 m/s, 184° | 162 W/m² | - |
| 1778009929 | 23.89° C | 34% | 1012.8 hPa | 0 mm | 2.68 m/s, 165° | 872 W/m² | - |
| 1778009627 | 23.89° C | 35% | 1012.9 hPa | 0 mm | 3.13 m/s, 209° | 904 W/m² | - |
| 1778009324 | 21.67° C | 52% | 1013.1 hPa | 0 mm | 1.34 m/s, 264° | 927 W/m² | - |
| 1778009023 | 22.22° C | 52% | 1013 hPa | 0 mm | 0 m/s | 258 W/m² | - |
| 1778008720 | 21.11° C | 54% | 1013.1 hPa | 0 mm | 0.45 m/s, 234° | 665 W/m² | - |
| 1778008418 | 21.67° C | 52% | 1013 hPa | 0 mm | 1.34 m/s, 63° | 200 W/m² | - |
| 1778008114 | 21.11° C | 51% | 1013.1 hPa | 0 mm | 0.89 m/s, 19° | 293 W/m² | - |
| 1778007810 | 20.56° C | 54% | 1013.4 hPa | 0 mm | 1.34 m/s, 122° | 210 W/m² | - |
| 1778007506 | 20.56° C | 54% | 1013.5 hPa | 0 mm | 1.34 m/s, 142° | 189 W/m² | - |
* Rain latest hour (hover to see other rain measurements)
** Current wind speed in m/s (hover to see current wind gust speed)